Time;durP1;ratioP1;P1;durP2;ratioP2;P2;SDS_P1;SDS_P2;PMS_P1;PMS_P2;Temp;Humidity;BMP_temperature;BMP_pressure;BME280_temperature;BME280_humidity;BME280_pressure;Samples;Min_cycle;Max_cycle;Signal;HPM_P1;HPM_P2
2023/03/22 00:00:35;;;;;;;24.65;13.77;;;11.20;99.90;;;;;;4939024;29;20222;-75
2023/03/22 00:03:02;;;;;;;24.35;13.95;;;11.30;99.90;;;;;;4937583;29;20187;-75
2023/03/22 00:05:31;;;;;;;24.33;12.90;;;11.20;99.90;;;;;;4939103;29;20187;-75
2023/03/22 00:07:57;;;;;;;21.40;12.80;;;11.20;99.90;;;;;;4939839;29;20258;-75
2023/03/22 00:10:24;;;;;;;23.63;11.80;;;11.20;99.90;;;;;;4939369;29;20183;-75
2023/03/22 00:12:51;;;;;;;18.35;11.27;;;11.20;99.90;;;;;;4953504;29;20179;-75
2023/03/22 00:15:17;;;;;;;23.55;12.85;;;11.20;99.90;;;;;;4938597;29;20186;-75
2023/03/22 00:17:46;;;;;;;25.88;12.80;;;11.20;99.90;;;;;;4953490;28;20184;-76
2023/03/22 00:20:12;;;;;;;21.92;12.25;;;11.20;99.90;;;;;;4938782;29;20207;-75
2023/03/22 00:22:38;;;;;;;19.73;12.57;;;11.20;99.90;;;;;;4938477;29;20718;-75
2023/03/22 00:25:05;;;;;;;22.45;12.38;;;11.20;99.90;;;;;;4938048;29;20195;-74
2023/03/22 00:27:31;;;;;;;22.33;12.13;;;11.20;99.90;;;;;;4938461;29;20180;-75
2023/03/22 00:29:57;;;;;;;21.20;12.00;;;11.20;99.90;;;;;;4939090;29;20191;-74
2023/03/22 00:32:24;;;;;;;23.52;11.75;;;11.20;99.90;;;;;;4938573;29;20235;-75
2023/03/22 00:34:50;;;;;;;21.58;10.85;;;11.20;99.90;;;;;;4937437;29;20184;-75
2023/03/22 00:37:16;;;;;;;23.95;11.55;;;11.20;99.90;;;;;;4938229;29;20180;-75
2023/03/22 00:39:43;;;;;;;23.92;11.15;;;11.20;99.90;;;;;;4953676;29;20238;-76
2023/03/22 00:42:09;;;;;;;20.38;11.02;;;11.20;99.90;;;;;;4953145;28;20191;-75
2023/03/22 00:44:35;;;;;;;27.98;10.88;;;11.10;99.90;;;;;;4936818;29;20245;-75
2023/03/22 00:47:00;;;;;;;19.25;9.88;;;11.10;99.90;;;;;;4952621;28;20193;-75
2023/03/22 00:49:26;;;;;;;18.45;9.27;;;11.10;99.90;;;;;;4952946;29;20195;-75
2023/03/22 00:51:53;;;;;;;17.58;9.20;;;11.10;99.90;;;;;;4936934;29;20183;-75
2023/03/22 00:54:19;;;;;;;17.33;8.57;;;11.10;99.90;;;;;;4952909;29;20624;-75
2023/03/22 00:56:45;;;;;;;19.52;8.55;;;11.10;99.90;;;;;;4953104;29;20575;-75
2023/03/22 00:59:13;;;;;;;18.38;8.07;;;11.10;99.90;;;;;;4952953;29;20281;-75
2023/03/22 01:01:40;;;;;;;19.77;7.88;;;11.10;99.90;;;;;;4936767;29;20196;-75
2023/03/22 01:04:06;;;;;;;22.02;8.13;;;11.00;99.90;;;;;;4952812;29;20583;-75
2023/03/22 01:06:33;;;;;;;19.27;6.97;;;11.00;99.90;;;;;;4953024;29;20236;-80
2023/03/22 01:08:59;;;;;;;17.88;7.15;;;11.10;99.90;;;;;;4937693;29;20270;-75
2023/03/22 01:11:25;;;;;;;18.88;7.13;;;11.00;99.90;;;;;;4920925;29;20290;-75
2023/03/22 01:13:51;;;;;;;14.95;6.25;;;11.00;99.90;;;;;;4920600;29;20183;-75
2023/03/22 01:16:17;;;;;;;18.60;7.03;;;11.00;99.90;;;;;;4936773;29;20187;-74
2023/03/22 01:18:43;;;;;;;17.77;6.85;;;11.00;99.90;;;;;;4937209;29;20207;-74
2023/03/22 01:21:09;;;;;;;18.25;6.15;;;11.00;99.90;;;;;;4952712;29;20183;-76
2023/03/22 01:23:36;;;;;;;17.58;6.28;;;11.00;99.90;;;;;;4937102;29;20187;-75
2023/03/22 01:26:02;;;;;;;13.43;6.20;;;11.00;99.90;;;;;;4952845;29;20539;-75
2023/03/22 01:28:29;;;;;;;18.38;5.57;;;11.00;99.90;;;;;;4952513;29;20195;-74
2023/03/22 01:30:55;;;;;;;15.18;4.97;;;11.00;99.90;;;;;;4952023;29;20187;-74
2023/03/22 01:33:21;;;;;;;14.27;5.57;;;10.90;99.90;;;;;;4952347;28;20191;-75
2023/03/22 01:35:47;;;;;;;13.50;4.78;;;10.90;99.90;;;;;;4936017;29;20180;-75
2023/03/22 01:38:13;;;;;;;16.05;4.85;;;10.90;99.90;;;;;;4952143;29;20187;-75
2023/03/22 01:40:49;;;;;;;12.13;4.90;;;10.90;99.90;;;;;;4936603;28;20197;-75
2023/03/22 01:43:16;;;;;;;12.25;4.43;;;10.90;99.90;;;;;;4935895;29;20211;-75
2023/03/22 01:45:45;;;;;;;10.27;4.25;;;10.90;99.90;;;;;;4952701;29;20278;-75
2023/03/22 01:48:15;;;;;;;15.60;4.32;;;10.90;99.90;;;;;;4936063;29;20636;-75
2023/03/22 01:50:50;;;;;;;12.90;4.20;;;10.90;99.90;;;;;;4937227;29;20175;-75
2023/03/22 01:53:17;;;;;;;15.10;4.22;;;10.90;99.90;;;;;;4952211;28;20202;-76
2023/03/22 01:55:45;;;;;;;16.88;4.15;;;10.90;99.90;;;;;;4936092;29;20187;-77
2023/03/22 01:58:22;;;;;;;13.45;3.72;;;10.90;99.90;;;;;;4936048;29;20242;-75
2023/03/22 02:00:53;;;;;;;10.25;3.65;;;10.90;99.90;;;;;;4951846;28;20180;-75
2023/03/22 02:03:51;;;;;;;13.05;3.08;;;10.80;99.90;;;;;;4936022;29;20657;-75
2023/03/22 02:06:19;;;;;;;11.30;3.45;;;10.80;99.90;;;;;;4936129;29;20623;-75
2023/03/22 02:08:51;;;;;;;12.50;2.97;;;10.80;99.90;;;;;;4952295;29;20207;-77
2023/03/22 02:11:28;;;;;;;12.10;3.03;;;10.80;99.90;;;;;;4935838;29;20195;-75
2023/03/22 02:14:42;;;;;;;9.65;3.15;;;10.80;99.90;;;;;;4951730;29;20193;-76
2023/03/22 02:18:15;;;;;;;13.10;3.35;;;10.80;99.90;;;;;;4950964;28;20644;-75
2023/03/22 02:21:22;;;;;;;11.38;2.80;;;10.80;99.90;;;;;;4920252;29;20199;-75
2023/03/22 02:24:06;;;;;;;10.38;2.97;;;10.80;99.90;;;;;;4950622;28;20638;-75
2023/03/22 02:26:53;;;;;;;13.75;2.90;;;10.80;99.90;;;;;;4951232;28;20196;-80
2023/03/22 02:29:43;;;;;;;12.63;3.08;;;10.80;99.90;;;;;;4936365;29;20199;-75
2023/03/22 02:32:41;;;;;;;11.70;2.70;;;10.80;99.90;;;;;;4934918;29;20175;-75
2023/03/22 02:35:37;;;;;;;10.25;2.75;;;10.70;99.90;;;;;;4936101;29;20246;-80
2023/03/22 02:38:35;;;;;;;11.25;2.80;;;10.80;99.90;;;;;;4931504;29;20199;-75
2023/03/22 02:41:31;;;;;;;8.38;2.45;;;10.70;99.90;;;;;;4936264;29;20210;-75
2023/03/22 02:44:02;;;;;;;10.52;2.35;;;10.80;99.90;;;;;;4951272;29;20186;-75
2023/03/22 02:46:45;;;;;;;9.52;2.22;;;10.70;99.90;;;;;;4936489;29;20194;-75
2023/03/22 02:49:19;;;;;;;10.93;2.55;;;10.70;99.90;;;;;;4935268;29;20171;-76
2023/03/22 02:52:09;;;;;;;11.48;2.85;;;10.70;99.90;;;;;;4936722;29;20251;-75
2023/03/22 02:54:43;;;;;;;9.68;2.63;;;10.70;99.90;;;;;;4951079;29;20266;-75
2023/03/22 02:57:15;;;;;;;12.43;2.45;;;10.70;99.90;;;;;;4936135;29;20604;-75
2023/03/22 02:59:42;;;;;;;12.52;2.40;;;10.70;99.90;;;;;;4950725;29;20234;-75
2023/03/22 03:02:12;;;;;;;14.48;2.50;;;10.70;99.90;;;;;;4934929;29;20215;-75
2023/03/22 03:04:45;;;;;;;10.45;2.20;;;10.70;99.90;;;;;;4936924;29;20173;-74
2023/03/22 03:07:15;;;;;;;14.45;2.20;;;10.70;99.90;;;;;;4950629;29;20231;-75
2023/03/22 03:09:42;;;;;;;15.50;2.20;;;10.70;99.90;;;;;;4950210;29;20278;-75
2023/03/22 03:12:20;;;;;;;13.68;2.25;;;10.70;99.90;;;;;;4934555;29;20211;-75
2023/03/22 03:14:46;;;;;;;9.13;2.50;;;10.80;99.90;;;;;;4934600;29;20666;-81
2023/03/22 03:17:49;;;;;;;13.70;2.47;;;10.80;99.90;;;;;;4934578;29;20270;-75
2023/03/22 03:20:23;;;;;;;14.18;2.78;;;10.80;99.90;;;;;;4935572;29;20230;-75
2023/03/22 03:22:56;;;;;;;13.07;2.53;;;10.80;99.90;;;;;;4951349;29;20206;-76
2023/03/22 03:25:37;;;;;;;12.10;2.42;;;10.80;99.90;;;;;;4936521;29;20178;-75
2023/03/22 03:28:13;;;;;;;11.20;2.50;;;10.80;99.90;;;;;;4935783;29;20586;-75
2023/03/22 03:30:52;;;;;;;15.98;2.30;;;10.80;99.90;;;;;;4951204;29;20254;-74
2023/03/22 03:33:20;;;;;;;8.82;2.08;;;10.80;99.90;;;;;;4951325;28;20473;-77
2023/03/22 03:36:04;;;;;;;13.18;2.22;;;10.80;99.90;;;;;;4935445;29;20233;-75
2023/03/22 03:38:35;;;;;;;9.70;2.60;;;10.80;99.90;;;;;;4950611;29;20218;-75
2023/03/22 03:41:05;;;;;;;9.27;2.33;;;10.80;99.90;;;;;;4936083;29;20270;-75
2023/03/22 03:43:32;;;;;;;11.77;2.50;;;10.80;99.90;;;;;;4934284;29;20216;-75
2023/03/22 03:45:59;;;;;;;15.43;2.72;;;10.80;99.90;;;;;;4936098;29;20325;-75
2023/03/22 03:48:32;;;;;;;10.27;2.40;;;10.80;99.90;;;;;;4950289;29;20227;-75
2023/03/22 03:51:00;;;;;;;14.75;2.47;;;10.80;99.90;;;;;;4950527;29;20536;-74
2023/03/22 03:53:26;;;;;;;13.50;2.75;;;10.80;99.90;;;;;;4950097;29;20195;-75
2023/03/22 03:55:51;;;;;;;15.70;2.65;;;10.80;99.90;;;;;;4950512;29;20289;-74
2023/03/22 03:58:17;;;;;;;13.57;2.92;;;10.80;99.90;;;;;;4934218;29;20188;-74
2023/03/22 04:00:46;;;;;;;15.85;3.45;;;10.80;99.90;;;;;;4933897;29;20191;-74
2023/03/22 04:03:38;;;;;;;17.08;3.00;;;10.80;99.90;;;;;;4944696;28;20188;-74
2023/03/22 04:06:04;;;;;;;12.93;2.70;;;10.80;99.90;;;;;;4950075;29;20202;-74
2023/03/22 04:08:35;;;;;;;13.10;2.90;;;10.80;99.90;;;;;;4950322;29;20198;-74
2023/03/22 04:11:01;;;;;;;12.77;2.88;;;10.80;99.90;;;;;;4933927;29;20599;-76
2023/03/22 04:13:28;;;;;;;13.77;2.95;;;10.80;99.90;;;;;;4934313;29;20179;-74
2023/03/22 04:16:00;;;;;;;17.75;2.83;;;10.80;99.90;;;;;;4934783;29;20550;-75
2023/03/22 04:18:29;;;;;;;10.75;3.03;;;10.80;99.90;;;;;;4933991;29;20293;-80
2023/03/22 04:20:59;;;;;;;10.82;2.85;;;10.80;99.90;;;;;;4950610;28;20195;-74
2023/03/22 04:23:32;;;;;;;10.20;2.90;;;10.80;99.90;;;;;;4937800;29;20183;-74
2023/03/22 04:25:58;;;;;;;16.75;3.53;;;10.80;99.90;;;;;;4953663;29;20191;-76
2023/03/22 04:28:33;;;;;;;9.40;2.90;;;10.80;99.90;;;;;;4938153;29;20179;-75
2023/03/22 04:31:02;;;;;;;12.43;3.03;;;10.80;99.90;;;;;;4953400;29;20194;-75
2023/03/22 04:33:46;;;;;;;9.07;3.40;;;10.80;99.90;;;;;;4953630;29;20282;-75
2023/03/22 04:36:24;;;;;;;11.27;3.42;;;10.80;99.90;;;;;;4922908;29;20175;-74
2023/03/22 04:39:12;;;;;;;12.57;2.78;;;10.80;99.90;;;;;;4953436;29;20575;-74
2023/03/22 04:41:41;;;;;;;12.18;2.88;;;10.80;99.90;;;;;;4953222;29;20216;-75
2023/03/22 04:44:07;;;;;;;11.27;3.13;;;10.80;99.90;;;;;;4937476;29;20627;-76
2023/03/22 04:46:36;;;;;;;16.88;4.10;;;10.80;99.90;;;;;;4921713;29;20187;-75
2023/03/22 04:49:05;;;;;;;7.25;3.30;;;10.80;99.90;;;;;;4938231;28;20191;-75
2023/03/22 04:51:35;;;;;;;13.23;4.30;;;10.80;99.90;;;;;;4936998;29;20187;-78
2023/03/22 04:54:22;;;;;;;13.82;4.28;;;10.80;99.90;;;;;;4938429;29;20631;-74
2023/03/22 04:56:48;;;;;;;19.50;5.00;;;10.80;99.90;;;;;;4953031;29;20282;-74
2023/03/22 04:59:19;;;;;;;12.35;5.63;;;10.80;99.90;;;;;;4937636;29;20222;-75
2023/03/22 05:01:47;;;;;;;13.98;5.25;;;10.80;99.90;;;;;;4937715;29;20596;-75
2023/03/22 05:04:18;;;;;;;10.55;5.15;;;10.80;99.90;;;;;;4936540;29;20651;-75
2023/03/22 05:06:45;;;;;;;12.93;5.30;;;10.80;99.90;;;;;;4952261;29;20255;-75
2023/03/22 05:09:26;;;;;;;14.50;5.85;;;10.80;99.90;;;;;;4937061;29;20514;-75
2023/03/22 05:11:53;;;;;;;14.02;5.97;;;10.80;99.90;;;;;;4936683;29;20179;-75
2023/03/22 05:14:25;;;;;;;16.25;6.32;;;10.80;99.90;;;;;;4921920;29;20671;-74
2023/03/22 05:16:50;;;;;;;16.80;6.50;;;10.80;99.90;;;;;;4952744;29;20184;-74
2023/03/22 05:19:21;;;;;;;13.25;6.47;;;10.80;99.90;;;;;;4936621;29;20211;-75
2023/03/22 05:21:48;;;;;;;20.20;7.78;;;10.80;99.90;;;;;;4936250;29;20210;-74
2023/03/22 05:24:14;;;;;;;17.13;7.35;;;10.80;99.90;;;;;;4952777;29;20270;-76
2023/03/22 05:26:43;;;;;;;18.75;7.53;;;10.90;99.90;;;;;;4936961;29;20319;-77
2023/03/22 05:29:11;;;;;;;16.00;8.07;;;10.90;99.90;;;;;;4936506;29;20299;-74
2023/03/22 05:31:56;;;;;;;18.45;8.10;;;10.90;99.90;;;;;;4936447;29;20183;-75
2023/03/22 05:34:22;;;;;;;16.85;8.63;;;10.90;99.90;;;;;;4935665;29;20187;-74
2023/03/22 05:36:50;;;;;;;18.98;8.77;;;10.90;99.90;;;;;;4952018;28;20187;-74
2023/03/22 05:39:25;;;;;;;17.10;8.82;;;10.90;99.90;;;;;;4936235;29;20218;-74
2023/03/22 05:41:51;;;;;;;19.42;8.95;;;10.90;99.90;;;;;;4952110;28;20247;-74
2023/03/22 05:44:17;;;;;;;18.30;8.73;;;10.90;99.90;;;;;;4936928;29;20183;-74
2023/03/22 05:46:55;;;;;;;18.55;9.45;;;10.90;99.90;;;;;;4936581;29;20251;-74
2023/03/22 05:49:29;;;;;;;20.27;9.65;;;10.90;99.90;;;;;;4951945;29;20617;-74
2023/03/22 05:51:56;;;;;;;20.88;10.10;;;10.90;99.90;;;;;;4951777;29;20263;-73
2023/03/22 05:54:26;;;;;;;18.42;9.77;;;10.90;99.90;;;;;;4935794;29;20187;-76
2023/03/22 05:56:52;;;;;;;19.38;9.55;;;10.90;99.90;;;;;;4951656;29;20623;-75
2023/03/22 05:59:18;;;;;;;17.77;9.93;;;10.90;99.90;;;;;;4936881;29;20210;-75
2023/03/22 06:01:44;;;;;;;18.98;9.82;;;10.90;99.90;;;;;;4951295;29;20377;-76
2023/03/22 06:04:17;;;;;;;26.10;10.77;;;10.90;99.90;;;;;;4952048;29;20179;-75
2023/03/22 06:06:52;;;;;;;20.55;10.52;;;10.90;99.90;;;;;;4951727;28;20684;-75
2023/03/22 06:09:44;;;;;;;21.50;10.43;;;10.90;99.90;;;;;;4945820;28;20658;-75
2023/03/22 06:12:18;;;;;;;20.25;11.40;;;10.90;99.90;;;;;;4951785;28;20184;-75
2023/03/22 06:14:49;;;;;;;16.40;10.65;;;10.90;99.90;;;;;;4935233;28;20183;-75
2023/03/22 06:17:38;;;;;;;25.70;11.73;;;10.90;99.90;;;;;;4953285;28;20283;-75
2023/03/22 06:20:10;;;;;;;22.02;11.35;;;10.90;99.90;;;;;;4937388;29;20242;-75
2023/03/22 06:22:38;;;;;;;24.73;11.32;;;10.90;99.90;;;;;;4951584;28;20180;-74
2023/03/22 06:25:05;;;;;;;21.48;11.48;;;10.90;99.90;;;;;;4951394;29;20187;-75
2023/03/22 06:27:37;;;;;;;21.27;11.15;;;10.90;99.90;;;;;;4935539;29;20603;-77
2023/03/22 06:30:03;;;;;;;18.88;10.43;;;10.90;99.90;;;;;;4951274;29;20183;-74
2023/03/22 06:32:34;;;;;;;23.30;11.32;;;10.90;99.90;;;;;;4920440;29;20194;-74
2023/03/22 06:35:01;;;;;;;19.38;11.20;;;10.90;99.90;;;;;;4935154;29;20282;-74
2023/03/22 06:37:28;;;;;;;22.67;12.07;;;10.90;99.90;;;;;;4935235;29;20267;-75
2023/03/22 06:39:54;;;;;;;25.70;12.40;;;11.00;99.90;;;;;;4935049;29;20277;-74
2023/03/22 06:42:23;;;;;;;26.52;12.20;;;11.00;99.90;;;;;;4951192;29;20187;-75
2023/03/22 06:45:00;;;;;;;27.08;12.35;;;11.00;99.90;;;;;;4934142;29;20206;-74
2023/03/22 06:47:29;;;;;;;22.58;11.68;;;11.00;99.90;;;;;;4935651;28;20183;-76
2023/03/22 06:50:31;;;;;;;27.30;12.75;;;11.00;99.90;;;;;;4934923;29;20212;-74
2023/03/22 06:53:04;;;;;;;23.25;12.35;;;11.00;99.90;;;;;;4935211;29;20666;-74
2023/03/22 06:55:34;;;;;;;28.10;12.88;;;11.00;99.90;;;;;;4935649;29;20187;-74
2023/03/22 06:58:08;;;;;;;22.65;12.95;;;11.10;99.90;;;;;;4935602;29;20179;-74
2023/03/22 07:00:34;;;;;;;24.38;12.45;;;11.10;99.90;;;;;;4951474;29;20227;-74
2023/03/22 07:03:00;;;;;;;21.40;12.20;;;11.10;99.90;;;;;;4934750;29;20187;-74
2023/03/22 07:05:32;;;;;;;19.25;11.63;;;11.10;99.90;;;;;;4935357;29;20529;-74
2023/03/22 07:07:58;;;;;;;26.05;12.60;;;11.10;99.90;;;;;;4935554;29;20223;-75
2023/03/22 07:10:25;;;;;;;22.95;12.57;;;11.20;99.90;;;;;;4936214;29;20187;-74
2023/03/22 07:12:51;;;;;;;22.55;12.05;;;11.20;99.90;;;;;;4950624;29;20194;-76
2023/03/22 07:15:23;;;;;;;24.33;11.98;;;11.20;99.90;;;;;;4934693;29;20616;-74
2023/03/22 07:18:09;;;;;;;18.35;10.90;;;11.30;99.90;;;;;;4935797;29;20191;-76
2023/03/22 07:20:40;;;;;;;22.30;12.32;;;11.30;99.90;;;;;;4919223;29;20313;-74
2023/03/22 07:23:09;;;;;;;24.58;11.80;;;11.30;99.90;;;;;;4950478;29;20635;-74
2023/03/22 07:25:43;;;;;;;21.48;11.30;;;11.40;99.90;;;;;;4934620;28;20654;-76
2023/03/22 07:28:17;;;;;;;22.58;12.50;;;11.40;99.90;;;;;;4951026;29;20210;-74
2023/03/22 07:30:42;;;;;;;18.90;11.80;;;11.40;99.90;;;;;;4935386;29;20556;-75
2023/03/22 07:33:10;;;;;;;21.48;11.25;;;11.40;99.90;;;;;;4936259;29;20646;-74
2023/03/22 07:35:37;;;;;;;23.77;11.75;;;11.40;99.90;;;;;;4934396;29;20187;-75
2023/03/22 07:38:04;;;;;;;20.90;11.40;;;11.40;99.90;;;;;;4933873;28;20266;-77
2023/03/22 07:40:31;;;;;;;20.70;12.10;;;11.40;99.90;;;;;;4934358;29;20207;-77
2023/03/22 07:42:57;;;;;;;23.08;11.30;;;11.40;99.90;;;;;;4934179;29;20238;-74
2023/03/22 07:45:39;;;;;;;21.38;11.23;;;11.50;99.90;;;;;;4951337;29;20219;-76
2023/03/22 07:48:24;;;;;;;20.25;11.27;;;11.50;99.90;;;;;;4935776;29;20675;-75
2023/03/22 07:51:09;;;;;;;18.42;10.25;;;11.50;99.90;;;;;;4948068;29;20263;-75
2023/03/22 07:53:35;;;;;;;21.85;10.05;;;11.50;99.90;;;;;;4934304;29;20528;-76
2023/03/22 07:56:03;;;;;;;18.90;10.15;;;11.50;99.90;;;;;;4934933;29;20330;-75
2023/03/22 07:58:29;;;;;;;18.48;10.48;;;11.50;99.90;;;;;;4937908;29;20202;-75
2023/03/22 08:00:57;;;;;;;19.70;10.07;;;11.50;99.90;;;;;;4953771;29;20658;-75
2023/03/22 08:03:52;;;;;;;19.42;10.07;;;11.50;99.90;;;;;;4945460;28;20227;-75
2023/03/22 08:06:41;;;;;;;20.75;9.82;;;11.50;99.90;;;;;;4953675;28;20234;-75
2023/03/22 08:09:07;;;;;;;19.10;9.55;;;11.50;99.90;;;;;;4921448;29;20183;-75
2023/03/22 08:11:35;;;;;;;16.80;9.07;;;11.60;99.90;;;;;;4937451;29;20187;-78
2023/03/22 08:14:01;;;;;;;17.92;8.90;;;11.60;99.90;;;;;;4938644;29;20567;-75
2023/03/22 08:16:29;;;;;;;19.05;9.77;;;11.70;99.90;;;;;;4937122;29;20669;-75
2023/03/22 08:18:57;;;;;;;20.10;9.10;;;11.70;99.90;;;;;;4937293;29;20203;-81
2023/03/22 08:21:25;;;;;;;20.05;9.13;;;11.80;99.90;;;;;;4937954;29;20191;-75
2023/03/22 08:23:53;;;;;;;15.23;8.00;;;11.80;99.90;;;;;;4937975;29;20187;-76
2023/03/22 08:26:28;;;;;;;16.50;7.95;;;11.80;99.90;;;;;;4937612;29;20167;-76
2023/03/22 08:28:58;;;;;;;16.13;8.07;;;11.80;99.90;;;;;;4953353;28;20191;-76
2023/03/22 08:31:28;;;;;;;22.40;8.52;;;11.80;99.90;;;;;;4953530;28;20271;-75
2023/03/22 08:33:54;;;;;;;20.13;7.68;;;11.80;99.90;;;;;;4953767;29;20183;-75
2023/03/22 08:36:24;;;;;;;15.45;7.22;;;11.80;99.90;;;;;;4937290;29;20262;-75
2023/03/22 08:38:58;;;;;;;17.02;7.28;;;11.80;99.90;;;;;;4937426;29;20222;-76
2023/03/22 08:41:35;;;;;;;13.63;7.10;;;11.80;99.90;;;;;;4937336;29;20191;-76
2023/03/22 08:44:02;;;;;;;15.75;6.95;;;11.90;99.90;;;;;;4936835;29;20187;-76
2023/03/22 08:46:28;;;;;;;17.52;7.80;;;11.90;99.90;;;;;;4936943;29;20188;-78
2023/03/22 08:48:57;;;;;;;17.35;6.68;;;11.90;99.90;;;;;;4952810;28;20282;-81
2023/03/22 08:51:32;;;;;;;16.88;6.97;;;11.90;99.90;;;;;;4937695;29;20175;-81
2023/03/22 08:54:10;;;;;;;14.18;6.53;;;11.90;99.90;;;;;;4953610;29;20183;-75
2023/03/22 08:56:51;;;;;;;14.52;6.22;;;12.00;99.90;;;;;;4950971;29;20255;-76
2023/03/22 08:59:46;;;;;;;16.92;6.47;;;11.90;99.90;;;;;;4945280;28;20219;-75
2023/03/22 09:02:26;;;;;;;16.58;6.35;;;12.00;99.90;;;;;;4936819;29;20658;-76
2023/03/22 09:04:53;;;;;;;15.13;6.32;;;12.00;99.90;;;;;;4953001;29;20246;-81
2023/03/22 09:07:19;;;;;;;12.48;5.95;;;12.10;99.90;;;;;;4936466;29;20231;-75
2023/03/22 09:09:53;;;;;;;17.23;5.80;;;12.10;99.90;;;;;;4952722;28;20183;-75
2023/03/22 09:12:20;;;;;;;18.02;6.15;;;12.10;99.90;;;;;;4936103;29;20187;-75
2023/03/22 09:14:46;;;;;;;15.88;6.25;;;12.10;99.90;;;;;;4952694;29;20246;-80
2023/03/22 09:17:13;;;;;;;17.67;6.30;;;12.10;99.90;;;;;;4938047;29;20262;-74
2023/03/22 09:19:39;;;;;;;16.55;6.00;;;12.20;99.90;;;;;;4952151;29;20693;-76
2023/03/22 09:22:05;;;;;;;11.38;5.10;;;12.10;99.90;;;;;;4936677;29;20199;-76
2023/03/22 09:24:41;;;;;;;15.93;5.72;;;12.20;99.90;;;;;;4936536;29;20183;-75
2023/03/22 09:27:07;;;;;;;14.68;5.75;;;12.20;99.90;;;;;;4937149;29;20195;-76
2023/03/22 09:29:33;;;;;;;16.67;5.53;;;12.20;99.90;;;;;;4952373;28;20640;-76
2023/03/22 09:32:05;;;;;;;10.75;4.75;;;12.20;99.90;;;;;;4936400;29;20218;-76
2023/03/22 09:34:33;;;;;;;13.93;5.00;;;12.20;99.90;;;;;;4936243;29;20217;-82
2023/03/22 09:37:01;;;;;;;14.27;5.68;;;12.20;99.90;;;;;;4936014;29;20187;-75
2023/03/22 09:39:37;;;;;;;16.48;5.15;;;12.20;99.90;;;;;;4936096;29;20675;-75
2023/03/22 09:42:06;;;;;;;15.65;4.90;;;12.20;99.90;;;;;;4952475;29;20183;-75
2023/03/22 09:44:39;;;;;;;19.25;5.50;;;12.20;99.90;;;;;;4935933;29;20215;-75
2023/03/22 09:47:16;;;;;;;14.77;5.43;;;12.20;99.90;;;;;;4936133;29;20462;-75
2023/03/22 09:49:47;;;;;;;15.95;4.88;;;12.20;99.90;;;;;;4936921;29;20167;-75
2023/03/22 09:52:14;;;;;;;11.20;5.13;;;12.20;99.90;;;;;;4937845;29;20255;-77
2023/03/22 09:54:43;;;;;;;13.00;5.00;;;12.20;99.90;;;;;;4936971;29;20194;-74
2023/03/22 09:57:36;;;;;;;11.02;4.65;;;12.20;99.90;;;;;;4937734;29;20215;-76
2023/03/22 10:00:31;;;;;;;13.27;4.82;;;12.20;99.90;;;;;;4936715;29;20200;-75
2023/03/22 10:03:05;;;;;;;14.20;4.90;;;12.20;99.90;;;;;;4950988;28;20199;-76
2023/03/22 10:05:53;;;;;;;14.85;4.90;;;12.20;99.90;;;;;;4937240;29;20168;-75
2023/03/22 10:08:56;;;;;;;9.23;4.32;;;12.10;99.90;;;;;;4919185;29;20365;-75
2023/03/22 10:11:28;;;;;;;13.38;5.15;;;12.10;99.90;;;;;;4946265;29;20203;-75
2023/03/22 10:14:13;;;;;;;14.15;4.95;;;12.10;99.90;;;;;;4936650;29;20163;-75
2023/03/22 10:16:39;;;;;;;15.70;5.25;;;12.00;99.90;;;;;;4936535;29;20170;-75
2023/03/22 10:19:39;;;;;;;16.05;5.40;;;12.00;99.90;;;;;;4936350;29;20215;-73
2023/03/22 10:22:07;;;;;;;18.80;5.30;;;11.90;99.90;;;;;;4935297;29;20267;-74
2023/03/22 10:24:37;;;;;;;14.05;5.28;;;12.00;99.90;;;;;;4936279;28;20262;-75
2023/03/22 10:27:03;;;;;;;13.23;4.78;;;11.90;99.90;;;;;;4951553;29;20211;-74
2023/03/22 10:29:34;;;;;;;12.75;4.70;;;11.90;99.90;;;;;;4937604;29;20293;-74
2023/03/22 10:32:13;;;;;;;14.90;5.50;;;11.80;99.90;;;;;;4951495;29;20194;-75
2023/03/22 10:34:38;;;;;;;18.77;5.30;;;11.80;99.90;;;;;;4936713;29;20262;-74
2023/03/22 10:37:06;;;;;;;14.40;5.22;;;11.80;99.90;;;;;;4935373;29;20199;-75
2023/03/22 10:39:38;;;;;;;14.63;5.00;;;11.70;99.90;;;;;;4936962;29;20293;-75
2023/03/22 10:42:12;;;;;;;10.85;5.20;;;11.70;99.90;;;;;;4936491;29;20243;-74
2023/03/22 10:44:48;;;;;;;11.45;5.07;;;11.70;99.90;;;;;;4936346;29;20172;-73
2023/03/22 10:47:17;;;;;;;12.38;5.20;;;11.60;99.90;;;;;;4936815;29;20199;-74
2023/03/22 10:49:52;;;;;;;12.65;4.97;;;11.60;99.90;;;;;;4936658;29;20187;-74
2023/03/22 10:52:30;;;;;;;15.18;4.75;;;11.60;99.90;;;;;;4936882;29;20163;-76
2023/03/22 10:54:56;;;;;;;10.20;4.75;;;11.50;99.90;;;;;;4936231;29;20295;-75
2023/03/22 10:57:24;;;;;;;14.18;4.78;;;11.50;99.90;;;;;;4919006;29;20175;-79
2023/03/22 10:59:54;;;;;;;12.35;5.32;;;11.50;99.90;;;;;;4935539;29;20211;-74
2023/03/22 11:02:31;;;;;;;14.15;4.60;;;11.50;99.90;;;;;;4935951;29;20274;-76
2023/03/22 11:04:59;;;;;;;10.73;5.00;;;11.50;99.90;;;;;;4936453;29;20174;-76
2023/03/22 11:07:43;;;;;;;11.27;5.20;;;11.50;99.90;;;;;;4935038;29;20233;-78
2023/03/22 11:10:09;;;;;;;14.40;5.30;;;11.50;99.90;;;;;;4936063;29;20175;-76
2023/03/22 11:13:10;;;;;;;9.38;4.43;;;11.50;99.90;;;;;;4951655;29;20226;-73
2023/03/22 11:15:47;;;;;;;10.48;5.15;;;11.50;99.90;;;;;;4937048;29;20202;-75
2023/03/22 11:18:16;;;;;;;11.60;5.47;;;11.50;99.90;;;;;;4950991;29;20186;-73
2023/03/22 11:21:01;;;;;;;14.10;5.15;;;11.50;99.90;;;;;;4950749;29;20203;-77
2023/03/22 11:23:32;;;;;;;10.93;4.80;;;11.50;99.90;;;;;;4936755;29;20167;-74
2023/03/22 11:26:10;;;;;;;10.13;5.10;;;11.50;99.90;;;;;;4936675;29;20163;-75
2023/03/22 11:28:48;;;;;;;12.82;4.97;;;11.50;99.90;;;;;;4951396;29;20168;-74
2023/03/22 11:31:18;;;;;;;10.48;4.78;;;11.50;99.90;;;;;;4937107;29;20182;-75
2023/03/22 11:33:54;;;;;;;14.73;5.43;;;11.60;99.90;;;;;;4938699;29;20178;-74
2023/03/22 11:36:19;;;;;;;10.65;4.57;;;11.50;99.90;;;;;;4940114;29;20178;-74
2023/03/22 11:38:46;;;;;;;11.05;5.30;;;11.50;99.90;;;;;;4939367;29;20214;-74
2023/03/22 11:41:22;;;;;;;14.82;5.07;;;11.50;99.90;;;;;;4939189;29;20602;-74
2023/03/22 11:43:55;;;;;;;10.02;4.90;;;11.50;99.90;;;;;;4940245;29;20171;-74
2023/03/22 11:46:22;;;;;;;14.80;4.90;;;11.50;99.90;;;;;;4955423;29;20261;-74
2023/03/22 11:48:51;;;;;;;13.18;4.70;;;11.60;99.90;;;;;;4939824;29;20186;-74
2023/03/22 11:51:26;;;;;;;12.73;5.22;;;11.60;99.90;;;;;;4939824;29;20183;-74
2023/03/22 11:54:21;;;;;;;10.05;5.22;;;11.60;99.90;;;;;;4939322;29;20167;-77
2023/03/22 11:56:48;;;;;;;8.57;4.97;;;11.60;99.90;;;;;;4952352;28;20191;-75
2023/03/22 11:59:22;;;;;;;9.60;5.13;;;11.60;99.90;;;;;;4939200;29;20287;-74
2023/03/22 12:01:56;;;;;;;9.82;4.38;;;11.60;99.90;;;;;;4939400;29;20166;-78
2023/03/22 12:04:26;;;;;;;10.10;4.80;;;11.60;99.90;;;;;;4940090;29;20168;-76
2023/03/22 12:06:58;;;;;;;7.70;4.20;;;11.60;99.90;;;;;;4939091;29;20298;-73
2023/03/22 12:09:42;;;;;;;11.15;4.60;;;11.60;99.90;;;;;;4939344;29;20179;-74
2023/03/22 12:12:16;;;;;;;12.82;4.63;;;11.60;99.90;;;;;;4954247;29;20196;-80
2023/03/22 12:15:05;;;;;;;12.05;4.57;;;11.60;99.90;;;;;;4939016;29;20174;-74
2023/03/22 12:17:36;;;;;;;7.45;4.43;;;11.60;99.90;;;;;;4938716;29;20227;-74
2023/03/22 12:20:24;;;;;;;8.93;4.53;;;11.60;99.90;;;;;;4939221;29;20235;-74
2023/03/22 12:22:53;;;;;;;10.55;4.50;;;11.60;99.90;;;;;;4938547;29;20179;-76
2023/03/22 12:25:23;;;;;;;13.57;4.88;;;11.60;99.90;;;;;;4938958;29;20178;-74
2023/03/22 12:28:05;;;;;;;10.95;4.47;;;11.60;99.90;;;;;;4953387;29;20168;-73
2023/03/22 12:30:39;;;;;;;14.85;4.80;;;11.60;99.90;;;;;;4938198;29;20510;-75
2023/03/22 12:33:13;;;;;;;10.50;4.70;;;11.60;99.90;;;;;;4952962;29;20520;-73
2023/03/22 12:35:43;;;;;;;11.00;4.13;;;11.60;99.90;;;;;;4954028;28;20558;-75
2023/03/22 12:38:28;;;;;;;10.05;4.88;;;11.70;99.90;;;;;;4953481;29;20168;-73
2023/03/22 12:40:59;;;;;;;13.68;5.22;;;11.70;99.90;;;;;;4938302;29;20176;-75
2023/03/22 12:43:43;;;;;;;9.52;4.57;;;11.60;99.90;;;;;;4938575;29;20190;-74
2023/03/22 12:46:19;;;;;;;10.40;5.30;;;11.60;99.90;;;;;;4938205;29;20608;-74
2023/03/22 12:48:50;;;;;;;9.30;4.85;;;11.60;99.90;;;;;;4938552;29;20252;-74
2023/03/22 12:51:16;;;;;;;10.10;5.18;;;11.60;99.90;;;;;;4953280;29;20175;-75
2023/03/22 12:53:52;;;;;;;11.75;5.95;;;11.60;99.90;;;;;;4937002;29;20183;-74
2023/03/22 12:56:23;;;;;;;18.27;5.78;;;11.60;99.90;;;;;;4938757;29;20171;-74
2023/03/22 12:58:57;;;;;;;11.25;6.00;;;11.60;99.90;;;;;;4938647;29;20199;-76
2023/03/22 13:01:28;;;;;;;12.70;5.85;;;11.50;99.90;;;;;;4938449;29;20203;-72
2023/03/22 13:03:56;;;;;;;13.57;5.57;;;11.50;99.90;;;;;;4938083;29;20169;-74